Captain Paris — 9HA3544 — position and weather

sailwx.info

Track history (hours):
 
Tides and Currents Weather Stations Pressure Air Temp Water Temp Dewpoint Dewpoint Depression Visibility Wind Speed Wind Dir Waves Ship Positions

Captain Paris

Last reported at 2017-Oct-08 12:01 UTC. Time now 2017-Oct-23 06:27 UTC.
Position N 01°11' E 103°50'.
Warning: this ship's position is 14 days out of date.

Length 253 m; draft 8.4 m.

Type: Tanker. MMSI: 229716000.

Date/timePositionNaut miles runAvg speedWind from/ knotsBaromVisibWave heightAir tempDewpointWater temp
2017-Oct-08 12:01N 01°11' E 103°50'0 3.1
2017-Oct-08 11:57N 01°11' E 103°50'1 2.9
2017-Oct-08 11:28N 01°12' E 103°51'1 2.9
2017-Oct-08 10:59N 01°13' E 103°53'1 2.6
2017-Oct-08 10:30N 01°13' E 103°54'1 2.6
2017-Oct-08 10:00N 01°14' E 103°55'3 1.1
2017-Oct-08 07:04N 01°16' E 103°57'0 0.0
2017-Oct-08 06:53N 01°16' E 103°57'3334.9
2017-Oct-08 05:56N 01°15' E 103°23'612.6
2017-Oct-08 05:27N 01°13' E 103°29'612.0
2017-Oct-08 04:58N 01°12' E 103°35'511.6
2017-Oct-08 04:30N 01°11' E 103°40'611.0
2017-Oct-08 03:59N 01°09' E 103°45'612.7
2017-Oct-08 03:30N 01°12' E 103°51'611.8
2017-Oct-08 03:00N 01°15' E 103°56'2 1.4
2017-Oct-08 01:54N 01°16' E 103°56'0 0.0
2017-Oct-08 01:24N 01°16' E 103°56'0 0.6
2017-Oct-08 00:56N 01°17' E 103°56'0 0.1
2017-Oct-08 00:26N 01°17' E 103°56'0 0.2
2017-Oct-07 23:59N 01°16' E 103°57'0 0.1
2017-Oct-07 23:26N 01°16' E 103°57'0 0.4
2017-Oct-07 22:55N 01°16' E 103°56'0 0.6
2017-Oct-07 22:29N 01°16' E 103°57'0 0.5
2017-Oct-07 21:58N 01°16' E 103°56'610.5
2017-Oct-07 21:25N 01°16' E 104°02'1 2.3
2017-Oct-07 21:00N 01°16' E 104°03'1 2.4
2017-Oct-07 20:30N 01°16' E 104°04'2 3.0
2017-Oct-07 19:58N 01°16' E 104°06'2 2.9
2017-Oct-07 19:24N 01°16' E 104°07'2 2.9
2017-Oct-07 18:51N 01°17' E 104°09'1234.0
2017-Oct-07 18:29N 01°16' E 103°56'0 0.0
2017-Oct-07 17:59N 01°16' E 103°56'0 0.1
2017-Oct-07 17:29N 01°16' E 103°57'0 0.1
2017-Oct-07 16:47N 01°16' E 103°56'0 0.2
2017-Oct-07 16:26N 01°16' E 103°56'0 0.1
2017-Oct-07 15:56N 01°16' E 103°56'0 0.0
2017-Oct-07 15:17N 01°16' E 103°56'0 0.1
2017-Oct-07 14:50N 01°16' E 103°56'0 0.0
2017-Oct-07 14:27N 01°16' E 103°56'1 2.5
2017-Oct-07 14:01N 01°16' E 103°57'1 2.4
2017-Oct-07 13:31N 01°16' E 103°58'2 3.5
2017-Oct-07 13:00N 01°16' E 104°00'4 8.0
2017-Oct-07 12:30N 01°16' E 104°04'5 9.2
2017-Oct-07 11:59N 01°17' E 104°09'5 8.4
2017-Oct-07 11:27N 01°17' E 104°13'4 7.8
2017-Oct-07 10:54N 01°18' E 104°18'  
2017-Oct-02 18:50N 22°21' E 119°56'513.1
2017-Oct-02 18:27N 22°26' E 119°57'613.5
2017-Oct-02 18:01N 22°32' E 119°57'713.5
2017-Oct-02 17:30N 22°39' E 119°57'713.3
2017-Oct-02 17:01N 22°45' E 119°57'713.4
2017-Oct-02 16:30N 22°52' E 119°56'  
2017-Sep-29 17:19N 22°48' E 119°57'510.6
2017-Sep-29 16:53N 22°43' E 119°57'410.6
2017-Sep-29 16:30N 22°39' E 119°57'510.3
2017-Sep-29 16:00N 22°34' E 119°57'510.2
2017-Sep-29 15:30N 22°29' E 119°57'510.2
2017-Sep-29 15:01N 22°24' E 119°57'510.6
2017-Sep-29 14:30N 22°19' E 119°56'  
Track history (hours):
 
Tides and Currents Weather Stations Pressure Air Temp Water Temp Dewpoint Dewpoint Depression Visibility Wind Speed Wind Dir Waves Ship Positions

Captain Paris

Last reported at 2017-Oct-08 12:01 UTC. Time now 2017-Oct-23 06:27 UTC.
Position N 01°11' E 103°50'.
Warning: this ship's position is 14 days out of date.

Length 253 m; draft 8.4 m.

Type: Tanker. MMSI: 229716000.

Date/timePositionNaut miles runAvg speedWind from/ knotsBaromVisibWave heightAir tempDewpointWater temp
2017-Oct-08 12:01N 01°11' E 103°50'0 3.1
2017-Oct-08 11:57N 01°11' E 103°50'1 2.9
2017-Oct-08 11:28N 01°12' E 103°51'1 2.9
2017-Oct-08 10:59N 01°13' E 103°53'1 2.6
2017-Oct-08 10:30N 01°13' E 103°54'1 2.6
2017-Oct-08 10:00N 01°14' E 103°55'3 1.1
2017-Oct-08 07:04N 01°16' E 103°57'0 0.0
2017-Oct-08 06:53N 01°16' E 103°57'3334.9
2017-Oct-08 05:56N 01°15' E 103°23'612.6
2017-Oct-08 05:27N 01°13' E 103°29'612.0
2017-Oct-08 04:58N 01°12' E 103°35'511.6
2017-Oct-08 04:30N 01°11' E 103°40'611.0
2017-Oct-08 03:59N 01°09' E 103°45'612.7
2017-Oct-08 03:30N 01°12' E 103°51'611.8
2017-Oct-08 03:00N 01°15' E 103°56'2 1.4
2017-Oct-08 01:54N 01°16' E 103°56'0 0.0
2017-Oct-08 01:24N 01°16' E 103°56'0 0.6
2017-Oct-08 00:56N 01°17' E 103°56'0 0.1
2017-Oct-08 00:26N 01°17' E 103°56'0 0.2
2017-Oct-07 23:59N 01°16' E 103°57'0 0.1
2017-Oct-07 23:26N 01°16' E 103°57'0 0.4
2017-Oct-07 22:55N 01°16' E 103°56'0 0.6
2017-Oct-07 22:29N 01°16' E 103°57'0 0.5
2017-Oct-07 21:58N 01°16' E 103°56'610.5
2017-Oct-07 21:25N 01°16' E 104°02'1 2.3
2017-Oct-07 21:00N 01°16' E 104°03'1 2.4
2017-Oct-07 20:30N 01°16' E 104°04'2 3.0
2017-Oct-07 19:58N 01°16' E 104°06'2 2.9
2017-Oct-07 19:24N 01°16' E 104°07'2 2.9
2017-Oct-07 18:51N 01°17' E 104°09'1234.0
2017-Oct-07 18:29N 01°16' E 103°56'0 0.0
2017-Oct-07 17:59N 01°16' E 103°56'0 0.1
2017-Oct-07 17:29N 01°16' E 103°57'0 0.1
2017-Oct-07 16:47N 01°16' E 103°56'0 0.2
2017-Oct-07 16:26N 01°16' E 103°56'0 0.1
2017-Oct-07 15:56N 01°16' E 103°56'0 0.0
2017-Oct-07 15:17N 01°16' E 103°56'0 0.1
2017-Oct-07 14:50N 01°16' E 103°56'0 0.0
2017-Oct-07 14:27N 01°16' E 103°56'1 2.5
2017-Oct-07 14:01N 01°16' E 103°57'1 2.4
2017-Oct-07 13:31N 01°16' E 103°58'2 3.5
2017-Oct-07 13:00N 01°16' E 104°00'4 8.0
2017-Oct-07 12:30N 01°16' E 104°04'5 9.2
2017-Oct-07 11:59N 01°17' E 104°09'5 8.4
2017-Oct-07 11:27N 01°17' E 104°13'4 7.8
2017-Oct-07 10:54N 01°18' E 104°18'  
2017-Oct-02 18:50N 22°21' E 119°56'513.1
2017-Oct-02 18:27N 22°26' E 119°57'613.5
2017-Oct-02 18:01N 22°32' E 119°57'713.5
2017-Oct-02 17:30N 22°39' E 119°57'713.3
2017-Oct-02 17:01N 22°45' E 119°57'713.4
2017-Oct-02 16:30N 22°52' E 119°56'  
2017-Sep-29 17:19N 22°48' E 119°57'510.6
2017-Sep-29 16:53N 22°43' E 119°57'410.6
2017-Sep-29 16:30N 22°39' E 119°57'510.3
2017-Sep-29 16:00N 22°34' E 119°57'510.2
2017-Sep-29 15:30N 22°29' E 119°57'510.2
2017-Sep-29 15:01N 22°24' E 119°57'510.6
2017-Sep-29 14:30N 22°19' E 119°56'  

Dump ship's entire track history